sensor_id;sensor_type;location;lat;lon;timestamp;temperature;humidity
66096;SHT31;53861;53.422;14.530;2023-07-20T00:01:48;16.41;82.18
66096;SHT31;53861;53.422;14.530;2023-07-20T00:04:15;16.30;82.71
66096;SHT31;53861;53.422;14.530;2023-07-20T00:06:42;16.40;82.81
66096;SHT31;53861;53.422;14.530;2023-07-20T00:09:09;16.56;83.15
66096;SHT31;53861;53.422;14.530;2023-07-20T00:11:37;16.47;82.97
66096;SHT31;53861;53.422;14.530;2023-07-20T00:14:04;16.50;82.51
66096;SHT31;53861;53.422;14.530;2023-07-20T00:16:31;16.37;83.62
66096;SHT31;53861;53.422;14.530;2023-07-20T00:18:58;16.43;83.33
66096;SHT31;53861;53.422;14.530;2023-07-20T00:21:25;16.38;84.09
66096;SHT31;53861;53.422;14.530;2023-07-20T00:23:52;16.40;83.38
66096;SHT31;53861;53.422;14.530;2023-07-20T00:26:19;16.44;83.92
66096;SHT31;53861;53.422;14.530;2023-07-20T00:28:50;16.46;84.05
66096;SHT31;53861;53.422;14.530;2023-07-20T00:31:18;16.44;83.94
66096;SHT31;53861;53.422;14.530;2023-07-20T00:33:44;16.40;83.92
66096;SHT31;53861;53.422;14.530;2023-07-20T00:36:11;16.37;84.07
66096;SHT31;53861;53.422;14.530;2023-07-20T00:38:38;16.41;83.83
66096;SHT31;53861;53.422;14.530;2023-07-20T00:41:04;16.37;83.58
66096;SHT31;53861;53.422;14.530;2023-07-20T00:43:31;16.27;84.17
66096;SHT31;53861;53.422;14.530;2023-07-20T00:46:00;16.33;83.79
66096;SHT31;53861;53.422;14.530;2023-07-20T00:48:28;16.40;81.86
66096;SHT31;53861;53.422;14.530;2023-07-20T00:50:55;16.47;82.01
66096;SHT31;53861;53.422;14.530;2023-07-20T00:53:23;16.51;83.20
66096;SHT31;53861;53.422;14.530;2023-07-20T00:55:50;16.51;81.41
66096;SHT31;53861;53.422;14.530;2023-07-20T00:58:17;16.68;80.94
66096;SHT31;53861;53.422;14.530;2023-07-20T01:00:45;16.64;81.18
66096;SHT31;53861;53.422;14.530;2023-07-20T01:03:14;16.63;81.88
66096;SHT31;53861;53.422;14.530;2023-07-20T01:05:42;16.69;80.74
66096;SHT31;53861;53.422;14.530;2023-07-20T01:08:11;16.69;80.25
66096;SHT31;53861;53.422;14.530;2023-07-20T01:10:40;16.61;80.23
66096;SHT31;53861;53.422;14.530;2023-07-20T01:13:09;16.51;80.37
66096;SHT31;53861;53.422;14.530;2023-07-20T01:15:36;16.46;80.48
66096;SHT31;53861;53.422;14.530;2023-07-20T01:18:03;16.46;80.48
66096;SHT31;53861;53.422;14.530;2023-07-20T01:20:32;16.44;80.47
66096;SHT31;53861;53.422;14.530;2023-07-20T01:23:11;16.48;80.41
66096;SHT31;53861;53.422;14.530;2023-07-20T01:25:45;16.47;80.60
66096;SHT31;53861;53.422;14.530;2023-07-20T01:28:25;16.41;80.67
66096;SHT31;53861;53.422;14.530;2023-07-20T01:30:59;16.36;80.89
66096;SHT31;53861;53.422;14.530;2023-07-20T01:33:31;16.34;81.07
66096;SHT31;53861;53.422;14.530;2023-07-20T01:36:00;16.34;81.13
66096;SHT31;53861;53.422;14.530;2023-07-20T01:38:27;16.36;81.17
66096;SHT31;53861;53.422;14.530;2023-07-20T01:40:54;16.30;81.39
66096;SHT31;53861;53.422;14.530;2023-07-20T01:43:22;16.27;81.58
66096;SHT31;53861;53.422;14.530;2023-07-20T01:45:49;16.21;81.80
66096;SHT31;53861;53.422;14.530;2023-07-20T01:48:16;16.18;81.88
66096;SHT31;53861;53.422;14.530;2023-07-20T01:50:44;16.10;82.06
66096;SHT31;53861;53.422;14.530;2023-07-20T01:53:13;16.00;82.46
66096;SHT31;53861;53.422;14.530;2023-07-20T01:55:40;16.02;82.56
66096;SHT31;53861;53.422;14.530;2023-07-20T01:58:07;16.03;82.67
66096;SHT31;53861;53.422;14.530;2023-07-20T02:00:36;15.99;82.84
66096;SHT31;53861;53.422;14.530;2023-07-20T02:03:03;15.95;82.90
66096;SHT31;53861;53.422;14.530;2023-07-20T02:05:30;16.02;82.78
66096;SHT31;53861;53.422;14.530;2023-07-20T02:08:01;15.97;83.01
66096;SHT31;53861;53.422;14.530;2023-07-20T02:10:28;15.90;83.34
66096;SHT31;53861;53.422;14.530;2023-07-20T02:12:55;15.89;83.47
66096;SHT31;53861;53.422;14.530;2023-07-20T02:15:22;15.86;83.43
66096;SHT31;53861;53.422;14.530;2023-07-20T02:17:49;15.87;83.38
66096;SHT31;53861;53.422;14.530;2023-07-20T02:20:16;15.82;83.48
66096;SHT31;53861;53.422;14.530;2023-07-20T02:22:45;15.81;83.62
66096;SHT31;53861;53.422;14.530;2023-07-20T02:25:13;15.79;83.55
66096;SHT31;53861;53.422;14.530;2023-07-20T02:27:40;15.79;83.62
66096;SHT31;53861;53.422;14.530;2023-07-20T02:30:07;15.79;83.51
66096;SHT31;53861;53.422;14.530;2023-07-20T02:32:36;15.78;83.51
66096;SHT31;53861;53.422;14.530;2023-07-20T02:35:03;15.75;83.51
66096;SHT31;53861;53.422;14.530;2023-07-20T02:37:30;15.76;83.47
66096;SHT31;53861;53.422;14.530;2023-07-20T02:39:58;15.70;83.54
66096;SHT31;53861;53.422;14.530;2023-07-20T02:42:26;15.67;83.56
66096;SHT31;53861;53.422;14.530;2023-07-20T02:44:53;15.70;83.52
66096;SHT31;53861;53.422;14.530;2023-07-20T02:47:20;15.67;83.42
66096;SHT31;53861;53.422;14.530;2023-07-20T02:49:47;15.61;83.60
66096;SHT31;53861;53.422;14.530;2023-07-20T02:52:14;15.56;83.74
66096;SHT31;53861;53.422;14.530;2023-07-20T02:54:41;15.59;83.51
66096;SHT31;53861;53.422;14.530;2023-07-20T02:57:08;15.63;83.48
66096;SHT31;53861;53.422;14.530;2023-07-20T02:59:36;15.66;83.46
66096;SHT31;53861;53.422;14.530;2023-07-20T03:02:03;15.66;83.22
66096;SHT31;53861;53.422;14.530;2023-07-20T03:04:30;15.56;83.38
66096;SHT31;53861;53.422;14.530;2023-07-20T03:06:57;15.61;83.31
66096;SHT31;53861;53.422;14.530;2023-07-20T03:09:25;15.61;83.49
66096;SHT31;53861;53.422;14.530;2023-07-20T03:11:52;15.55;83.35
66096;SHT31;53861;53.422;14.530;2023-07-20T03:14:19;15.52;83.26
66096;SHT31;53861;53.422;14.530;2023-07-20T03:16:47;15.48;83.29
66096;SHT31;53861;53.422;14.530;2023-07-20T03:19:14;15.48;83.23
66096;SHT31;53861;53.422;14.530;2023-07-20T03:21:41;15.44;83.32
66096;SHT31;53861;53.422;14.530;2023-07-20T03:24:08;15.46;83.09
66096;SHT31;53861;53.422;14.530;2023-07-20T03:26:35;15.45;83.10
66096;SHT31;53861;53.422;14.530;2023-07-20T03:29:03;15.46;83.11
66096;SHT31;53861;53.422;14.530;2023-07-20T03:31:30;15.46;83.06
66096;SHT31;53861;53.422;14.530;2023-07-20T03:33:59;15.45;83.13
66096;SHT31;53861;53.422;14.530;2023-07-20T03:36:26;15.45;83.21
66096;SHT31;53861;53.422;14.530;2023-07-20T03:38:53;15.41;83.28
66096;SHT31;53861;53.422;14.530;2023-07-20T03:41:20;15.30;83.78
66096;SHT31;53861;53.422;14.530;2023-07-20T03:43:47;15.32;83.67
66096;SHT31;53861;53.422;14.530;2023-07-20T03:46:14;15.30;83.73
66096;SHT31;53861;53.422;14.530;2023-07-20T03:48:41;15.34;84.05
66096;SHT31;53861;53.422;14.530;2023-07-20T03:51:09;15.30;83.75
66096;SHT31;53861;53.422;14.530;2023-07-20T03:53:36;15.28;83.84
66096;SHT31;53861;53.422;14.530;2023-07-20T03:56:04;15.31;83.88
66096;SHT31;53861;53.422;14.530;2023-07-20T03:58:31;15.35;83.69
66096;SHT31;53861;53.422;14.530;2023-07-20T04:00:58;15.34;83.61
66096;SHT31;53861;53.422;14.530;2023-07-20T04:03:25;15.25;83.54
66096;SHT31;53861;53.422;14.530;2023-07-20T04:05:53;15.27;83.83
66096;SHT31;53861;53.422;14.530;2023-07-20T04:08:21;15.27;83.75
66096;SHT31;53861;53.422;14.530;2023-07-20T04:10:48;15.30;83.83
66096;SHT31;53861;53.422;14.530;2023-07-20T04:13:15;15.27;83.94
66096;SHT31;53861;53.422;14.530;2023-07-20T04:15:42;15.38;83.98
66096;SHT31;53861;53.422;14.530;2023-07-20T04:18:09;15.44;83.44
66096;SHT31;53861;53.422;14.530;2023-07-20T04:20:36;15.51;83.22
66096;SHT31;53861;53.422;14.530;2023-07-20T04:23:03;15.49;82.99
66096;SHT31;53861;53.422;14.530;2023-07-20T04:25:31;15.53;82.85
66096;SHT31;53861;53.422;14.530;2023-07-20T04:28:04;15.65;82.64
66096;SHT31;53861;53.422;14.530;2023-07-20T04:30:34;15.70;82.50
66096;SHT31;53861;53.422;14.530;2023-07-20T04:33:01;15.79;82.45
66096;SHT31;53861;53.422;14.530;2023-07-20T04:35:48;15.79;82.41
66096;SHT31;53861;53.422;14.530;2023-07-20T04:38:15;15.85;82.49
66096;SHT31;53861;53.422;14.530;2023-07-20T04:40:45;15.83;82.71
66096;SHT31;53861;53.422;14.530;2023-07-20T04:43:12;15.79;82.72
66096;SHT31;53861;53.422;14.530;2023-07-20T04:45:39;15.75;82.72
66096;SHT31;53861;53.422;14.530;2023-07-20T04:48:07;15.76;82.83
66096;SHT31;53861;53.422;14.530;2023-07-20T04:50:35;15.70;82.92
66096;SHT31;53861;53.422;14.530;2023-07-20T04:53:02;15.93;82.50
66096;SHT31;53861;53.422;14.530;2023-07-20T04:55:29;15.81;82.60
66096;SHT31;53861;53.422;14.530;2023-07-20T04:57:59;15.83;82.56
66096;SHT31;53861;53.422;14.530;2023-07-20T05:00:26;15.82;82.66
66096;SHT31;53861;53.422;14.530;2023-07-20T05:02:53;15.83;82.80
66096;SHT31;53861;53.422;14.530;2023-07-20T05:05:20;16.06;82.45
66096;SHT31;53861;53.422;14.530;2023-07-20T05:07:47;16.10;82.26
66096;SHT31;53861;53.422;14.530;2023-07-20T05:10:14;16.10;81.89
66096;SHT31;53861;53.422;14.530;2023-07-20T05:12:41;16.13;81.88
66096;SHT31;53861;53.422;14.530;2023-07-20T05:15:09;16.06;82.32
66096;SHT31;53861;53.422;14.530;2023-07-20T05:17:36;16.18;81.92
66096;SHT31;53861;53.422;14.530;2023-07-20T05:20:05;16.43;82.01
66096;SHT31;53861;53.422;14.530;2023-07-20T05:22:32;16.51;81.43
66096;SHT31;53861;53.422;14.530;2023-07-20T05:24:59;16.68;81.27
66096;SHT31;53861;53.422;14.530;2023-07-20T05:27:26;16.85;80.97
66096;SHT31;53861;53.422;14.530;2023-07-20T05:29:53;16.95;80.25
66096;SHT31;53861;53.422;14.530;2023-07-20T05:32:21;17.19;79.66
66096;SHT31;53861;53.422;14.530;2023-07-20T05:34:51;17.25;79.19
66096;SHT31;53861;53.422;14.530;2023-07-20T05:37:18;17.12;79.84
66096;SHT31;53861;53.422;14.530;2023-07-20T05:39:44;16.85;80.23
66096;SHT31;53861;53.422;14.530;2023-07-20T05:42:12;16.84;80.47
66096;SHT31;53861;53.422;14.530;2023-07-20T05:44:39;16.81;80.90
66096;SHT31;53861;53.422;14.530;2023-07-20T05:47:06;16.95;80.64
66096;SHT31;53861;53.422;14.530;2023-07-20T05:49:35;17.25;79.86
66096;SHT31;53861;53.422;14.530;2023-07-20T05:52:02;17.45;79.33
66096;SHT31;53861;53.422;14.530;2023-07-20T05:54:29;17.62;78.09
66096;SHT31;53861;53.422;14.530;2023-07-20T05:56:56;17.63;78.18
66096;SHT31;53861;53.422;14.530;2023-07-20T05:59:24;17.76;77.78
66096;SHT31;53861;53.422;14.530;2023-07-20T06:01:51;18.17;77.34
66096;SHT31;53861;53.422;14.530;2023-07-20T06:04:17;18.28;76.81
66096;SHT31;53861;53.422;14.530;2023-07-20T06:06:46;18.49;75.36
66096;SHT31;53861;53.422;14.530;2023-07-20T06:09:13;18.48;75.56
66096;SHT31;53861;53.422;14.530;2023-07-20T06:11:40;18.76;75.38
66096;SHT31;53861;53.422;14.530;2023-07-20T06:14:07;19.24;74.02
66096;SHT31;53861;53.422;14.530;2023-07-20T06:16:34;19.61;71.96
66096;SHT31;53861;53.422;14.530;2023-07-20T06:19:01;19.53;71.82
66096;SHT31;53861;53.422;14.530;2023-07-20T06:21:28;19.56;71.05
66096;SHT31;53861;53.422;14.530;2023-07-20T06:23:56;19.63;71.12
66096;SHT31;53861;53.422;14.530;2023-07-20T06:26:24;19.61;71.60
66096;SHT31;53861;53.422;14.530;2023-07-20T06:28:51;19.71;70.89
66096;SHT31;53861;53.422;14.530;2023-07-20T06:31:18;19.41;70.01
66096;SHT31;53861;53.422;14.530;2023-07-20T06:33:45;19.54;71.15
66096;SHT31;53861;53.422;14.530;2023-07-20T06:36:12;19.23;71.17
66096;SHT31;53861;53.422;14.530;2023-07-20T06:38:39;19.09;71.73
66096;SHT31;53861;53.422;14.530;2023-07-20T06:41:08;19.70;71.88
66096;SHT31;53861;53.422;14.530;2023-07-20T06:43:34;20.19;69.07
66096;SHT31;53861;53.422;14.530;2023-07-20T06:46:01;19.64;69.78
66096;SHT31;53861;53.422;14.530;2023-07-20T06:48:28;19.75;69.70
66096;SHT31;53861;53.422;14.530;2023-07-20T06:50:55;20.15;68.83
66096;SHT31;53861;53.422;14.530;2023-07-20T06:53:22;20.70;67.53
66096;SHT31;53861;53.422;14.530;2023-07-20T06:55:49;21.11;67.17
66096;SHT31;53861;53.422;14.530;2023-07-20T06:58:18;20.97;66.31
66096;SHT31;53861;53.422;14.530;2023-07-20T07:00:47;20.43;67.21
66096;SHT31;53861;53.422;14.530;2023-07-20T07:03:14;20.19;68.85
66096;SHT31;53861;53.422;14.530;2023-07-20T07:05:40;20.66;67.66
66096;SHT31;53861;53.422;14.530;2023-07-20T07:08:09;20.57;66.67
66096;SHT31;53861;53.422;14.530;2023-07-20T07:10:37;21.14;65.72
66096;SHT31;53861;53.422;14.530;2023-07-20T07:13:04;20.52;66.96
66096;SHT31;53861;53.422;14.530;2023-07-20T07:15:33;20.28;67.66
66096;SHT31;53861;53.422;14.530;2023-07-20T07:18:00;19.97;67.46
66096;SHT31;53861;53.422;14.530;2023-07-20T07:20:29;19.77;68.35
66096;SHT31;53861;53.422;14.530;2023-07-20T07:22:56;20.17;67.92
66096;SHT31;53861;53.422;14.530;2023-07-20T07:25:23;20.42;67.38
66096;SHT31;53861;53.422;14.530;2023-07-20T07:27:50;20.28;68.31
66096;SHT31;53861;53.422;14.530;2023-07-20T07:30:18;20.21;68.34
66096;SHT31;53861;53.422;14.530;2023-07-20T07:32:47;20.08;68.51
66096;SHT31;53861;53.422;14.530;2023-07-20T07:35:14;19.73;69.93
66096;SHT31;53861;53.422;14.530;2023-07-20T07:37:41;19.68;70.18
66096;SHT31;53861;53.422;14.530;2023-07-20T07:40:08;19.63;70.59
66096;SHT31;53861;53.422;14.530;2023-07-20T07:42:36;19.38;70.79
66096;SHT31;53861;53.422;14.530;2023-07-20T07:45:03;19.37;70.97
66096;SHT31;53861;53.422;14.530;2023-07-20T07:47:30;19.16;71.60
66096;SHT31;53861;53.422;14.530;2023-07-20T07:49:58;18.95;72.26
66096;SHT31;53861;53.422;14.530;2023-07-20T07:52:25;18.92;71.79
66096;SHT31;53861;53.422;14.530;2023-07-20T07:54:52;18.83;71.17
66096;SHT31;53861;53.422;14.530;2023-07-20T07:57:19;18.88;70.88
66096;SHT31;53861;53.422;14.530;2023-07-20T07:59:46;18.99;70.95
66096;SHT31;53861;53.422;14.530;2023-07-20T08:02:13;19.22;70.30
66096;SHT31;53861;53.422;14.530;2023-07-20T08:04:40;19.30;70.10
66096;SHT31;53861;53.422;14.530;2023-07-20T08:07:08;19.68;69.70
66096;SHT31;53861;53.422;14.530;2023-07-20T08:09:35;19.95;69.46
66096;SHT31;53861;53.422;14.530;2023-07-20T08:12:02;20.38;68.40
66096;SHT31;53861;53.422;14.530;2023-07-20T08:14:29;21.62;65.25
66096;SHT31;53861;53.422;14.530;2023-07-20T08:16:56;22.84;62.67
66096;SHT31;53861;53.422;14.530;2023-07-20T08:19:36;23.41;59.73
66096;SHT31;53861;53.422;14.530;2023-07-20T08:22:08;23.18;59.43
66096;SHT31;53861;53.422;14.530;2023-07-20T08:24:38;22.42;60.56
66096;SHT31;53861;53.422;14.530;2023-07-20T08:27:05;22.39;61.67
66096;SHT31;53861;53.422;14.530;2023-07-20T08:29:32;22.22;61.56
66096;SHT31;53861;53.422;14.530;2023-07-20T08:31:59;21.59;62.98
66096;SHT31;53861;53.422;14.530;2023-07-20T08:34:26;21.41;63.79
66096;SHT31;53861;53.422;14.530;2023-07-20T08:36:53;21.89;62.68
66096;SHT31;53861;53.422;14.530;2023-07-20T08:39:21;22.90;60.71
66096;SHT31;53861;53.422;14.530;2023-07-20T08:41:49;22.74;60.54
66096;SHT31;53861;53.422;14.530;2023-07-20T08:44:17;22.08;62.39
66096;SHT31;53861;53.422;14.530;2023-07-20T08:46:44;22.97;59.24
66096;SHT31;53861;53.422;14.530;2023-07-20T08:49:11;22.30;59.30
66096;SHT31;53861;53.422;14.530;2023-07-20T08:51:38;23.37;58.91
66096;SHT31;53861;53.422;14.530;2023-07-20T08:54:08;24.17;56.07
66096;SHT31;53861;53.422;14.530;2023-07-20T08:56:37;24.02;54.59
66096;SHT31;53861;53.422;14.530;2023-07-20T08:59:06;24.59;58.83
66096;SHT31;53861;53.422;14.530;2023-07-20T09:01:34;25.38;53.03
66096;SHT31;53861;53.422;14.530;2023-07-20T09:04:02;25.18;52.73
66096;SHT31;53861;53.422;14.530;2023-07-20T09:06:29;23.79;54.87
66096;SHT31;53861;53.422;14.530;2023-07-20T09:08:56;22.88;58.14
66096;SHT31;53861;53.422;14.530;2023-07-20T09:11:23;23.19;58.17
66096;SHT31;53861;53.422;14.530;2023-07-20T09:14:03;22.95;57.80
66096;SHT31;53861;53.422;14.530;2023-07-20T09:16:30;21.93;60.51
66096;SHT31;53861;53.422;14.530;2023-07-20T09:18:57;21.82;60.95
66096;SHT31;53861;53.422;14.530;2023-07-20T09:21:27;21.66;61.23
66096;SHT31;53861;53.422;14.530;2023-07-20T09:23:56;21.17;62.46
66096;SHT31;53861;53.422;14.530;2023-07-20T09:26:23;21.28;62.59
66096;SHT31;53861;53.422;14.530;2023-07-20T09:28:51;21.40;61.78
66096;SHT31;53861;53.422;14.530;2023-07-20T09:31:20;21.26;61.83
66096;SHT31;53861;53.422;14.530;2023-07-20T09:33:47;21.37;61.21
66096;SHT31;53861;53.422;14.530;2023-07-20T09:36:15;21.41;61.65
66096;SHT31;53861;53.422;14.530;2023-07-20T09:38:42;22.03;59.75
66096;SHT31;53861;53.422;14.530;2023-07-20T09:41:12;22.28;58.34
66096;SHT31;53861;53.422;14.530;2023-07-20T09:43:41;22.59;57.66
66096;SHT31;53861;53.422;14.530;2023-07-20T09:46:08;22.86;56.93
66096;SHT31;53861;53.422;14.530;2023-07-20T09:48:36;22.67;58.23
66096;SHT31;53861;53.422;14.530;2023-07-20T09:51:08;22.61;58.47
66096;SHT31;53861;53.422;14.530;2023-07-20T09:53:35;22.66;57.88
66096;SHT31;53861;53.422;14.530;2023-07-20T09:56:02;22.84;58.38
66096;SHT31;53861;53.422;14.530;2023-07-20T09:58:30;22.23;58.98
66096;SHT31;53861;53.422;14.530;2023-07-20T10:00:58;21.55;62.87
66096;SHT31;53861;53.422;14.530;2023-07-20T10:03:28;20.56;66.45
66096;SHT31;53861;53.422;14.530;2023-07-20T10:05:57;20.14;69.27
66096;SHT31;53861;53.422;14.530;2023-07-20T10:08:26;19.71;74.50
66096;SHT31;53861;53.422;14.530;2023-07-20T10:10:56;19.37;77.65
66096;SHT31;53861;53.422;14.530;2023-07-20T10:13:25;19.19;77.24
66096;SHT31;53861;53.422;14.530;2023-07-20T10:15:53;19.64;77.71
66096;SHT31;53861;53.422;14.530;2023-07-20T10:18:22;20.01;73.28
66096;SHT31;53861;53.422;14.530;2023-07-20T10:20:51;19.99;72.33
66096;SHT31;53861;53.422;14.530;2023-07-20T10:23:19;20.52;70.77
66096;SHT31;53861;53.422;14.530;2023-07-20T10:25:47;21.26;69.13
66096;SHT31;53861;53.422;14.530;2023-07-20T10:28:15;21.93;66.34
66096;SHT31;53861;53.422;14.530;2023-07-20T10:30:42;23.01;63.56
66096;SHT31;53861;53.422;14.530;2023-07-20T10:33:09;23.34;61.51
66096;SHT31;53861;53.422;14.530;2023-07-20T10:35:50;24.06;59.48
66096;SHT31;53861;53.422;14.530;2023-07-20T10:38:17;24.47;60.04
66096;SHT31;53861;53.422;14.530;2023-07-20T10:40:54;25.01;55.57
66096;SHT31;53861;53.422;14.530;2023-07-20T10:43:22;25.28;53.64
66096;SHT31;53861;53.422;14.530;2023-07-20T10:45:49;24.96;52.71
66096;SHT31;53861;53.422;14.530;2023-07-20T10:48:17;23.51;55.76
66096;SHT31;53861;53.422;14.530;2023-07-20T10:50:45;23.32;56.42
66096;SHT31;53861;53.422;14.530;2023-07-20T10:53:13;24.46;54.38
66096;SHT31;53861;53.422;14.530;2023-07-20T10:55:41;25.92;52.05
66096;SHT31;53861;53.422;14.530;2023-07-20T10:58:09;26.23;48.79
66096;SHT31;53861;53.422;14.530;2023-07-20T11:00:37;26.47;47.61
66096;SHT31;53861;53.422;14.530;2023-07-20T11:03:04;27.50;46.30
66096;SHT31;53861;53.422;14.530;2023-07-20T11:05:32;27.51;43.70
66096;SHT31;53861;53.422;14.530;2023-07-20T11:08:03;26.33;45.86
66096;SHT31;53861;53.422;14.530;2023-07-20T11:10:32;26.14;47.08
66096;SHT31;53861;53.422;14.530;2023-07-20T11:15:46;26.24;45.91
66096;SHT31;53861;53.422;14.530;2023-07-20T11:18:13;26.04;45.85
66096;SHT31;53861;53.422;14.530;2023-07-20T11:20:41;25.19;47.38
66096;SHT31;53861;53.422;14.530;2023-07-20T11:23:08;23.78;48.68
66096;SHT31;53861;53.422;14.530;2023-07-20T11:25:36;23.88;47.65
66096;SHT31;53861;53.422;14.530;2023-07-20T11:28:06;25.52;46.35
66096;SHT31;53861;53.422;14.530;2023-07-20T11:30:36;26.28;44.01
66096;SHT31;53861;53.422;14.530;2023-07-20T11:33:04;27.20;42.32
66096;SHT31;53861;53.422;14.530;2023-07-20T11:35:34;27.96;45.12
66096;SHT31;53861;53.422;14.530;2023-07-20T11:38:02;28.25;40.32
66096;SHT31;53861;53.422;14.530;2023-07-20T11:40:31;28.44;38.39
66096;SHT31;53861;53.422;14.530;2023-07-20T11:42:58;26.81;40.41
66096;SHT31;53861;53.422;14.530;2023-07-20T11:45:25;27.06;41.26
66096;SHT31;53861;53.422;14.530;2023-07-20T11:47:53;28.07;42.94
66096;SHT31;53861;53.422;14.530;2023-07-20T11:50:21;27.68;40.02
66096;SHT31;53861;53.422;14.530;2023-07-20T11:52:48;27.33;40.85
66096;SHT31;53861;53.422;14.530;2023-07-20T11:55:15;26.85;40.37
66096;SHT31;53861;53.422;14.530;2023-07-20T12:00:24;25.98;42.41
66096;SHT31;53861;53.422;14.530;2023-07-20T12:02:52;25.41;42.92
66096;SHT31;53861;53.422;14.530;2023-07-20T12:05:21;25.38;43.71
66096;SHT31;53861;53.422;14.530;2023-07-20T12:07:49;25.22;44.17
66096;SHT31;53861;53.422;14.530;2023-07-20T12:10:23;24.78;43.84
66096;SHT31;53861;53.422;14.530;2023-07-20T12:12:50;25.01;43.68
66096;SHT31;53861;53.422;14.530;2023-07-20T12:15:19;25.76;43.13
66096;SHT31;53861;53.422;14.530;2023-07-20T12:17:50;25.69;43.11
66096;SHT31;53861;53.422;14.530;2023-07-20T12:20:28;26.18;43.27
66096;SHT31;53861;53.422;14.530;2023-07-20T12:22:56;26.45;41.30
66096;SHT31;53861;53.422;14.530;2023-07-20T12:25:23;25.96;42.72
66096;SHT31;53861;53.422;14.530;2023-07-20T12:28:00;26.10;41.53
66096;SHT31;53861;53.422;14.530;2023-07-20T12:30:28;25.08;43.11
66096;SHT31;53861;53.422;14.530;2023-07-20T12:32:54;24.40;44.19
66096;SHT31;53861;53.422;14.530;2023-07-20T12:35:21;24.74;44.41
66096;SHT31;53861;53.422;14.530;2023-07-20T12:37:50;24.46;46.38
66096;SHT31;53861;53.422;14.530;2023-07-20T12:40:17;24.23;46.91
66096;SHT31;53861;53.422;14.530;2023-07-20T12:42:44;24.41;47.13
66096;SHT31;53861;53.422;14.530;2023-07-20T12:45:11;24.60;47.04
66096;SHT31;53861;53.422;14.530;2023-07-20T12:47:39;24.36;46.75
66096;SHT31;53861;53.422;14.530;2023-07-20T12:50:06;23.69;47.62
66096;SHT31;53861;53.422;14.530;2023-07-20T12:52:35;23.37;49.98
66096;SHT31;53861;53.422;14.530;2023-07-20T12:55:04;23.55;49.01
66096;SHT31;53861;53.422;14.530;2023-07-20T12:57:32;24.49;47.89
66096;SHT31;53861;53.422;14.530;2023-07-20T12:59:59;25.62;45.05
66096;SHT31;53861;53.422;14.530;2023-07-20T13:02:27;26.25;42.80
66096;SHT31;53861;53.422;14.530;2023-07-20T13:04:54;26.45;42.47
66096;SHT31;53861;53.422;14.530;2023-07-20T13:07:28;26.44;43.04
66096;SHT31;53861;53.422;14.530;2023-07-20T13:09:56;26.68;40.82
66096;SHT31;53861;53.422;14.530;2023-07-20T13:12:24;27.36;39.35
66096;SHT31;53861;53.422;14.530;2023-07-20T13:14:51;27.16;39.14
66096;SHT31;53861;53.422;14.530;2023-07-20T13:17:18;27.74;43.24
66096;SHT31;53861;53.422;14.530;2023-07-20T13:19:45;27.22;39.10
66096;SHT31;53861;53.422;14.530;2023-07-20T13:22:12;25.65;41.14
66096;SHT31;53861;53.422;14.530;2023-07-20T13:24:40;25.01;41.51
66096;SHT31;53861;53.422;14.530;2023-07-20T13:27:07;24.27;42.66
66096;SHT31;53861;53.422;14.530;2023-07-20T13:29:35;23.88;43.93
66096;SHT31;53861;53.422;14.530;2023-07-20T13:32:02;23.58;44.64
66096;SHT31;53861;53.422;14.530;2023-07-20T13:34:30;23.32;45.14
66096;SHT31;53861;53.422;14.530;2023-07-20T13:36:57;23.46;47.44
66096;SHT31;53861;53.422;14.530;2023-07-20T13:39:24;23.48;45.96
66096;SHT31;53861;53.422;14.530;2023-07-20T13:41:52;23.51;45.99
66096;SHT31;53861;53.422;14.530;2023-07-20T13:44:20;23.73;45.48
66096;SHT31;53861;53.422;14.530;2023-07-20T13:46:48;23.79;46.20
66096;SHT31;53861;53.422;14.530;2023-07-20T13:49:15;24.24;45.62
66096;SHT31;53861;53.422;14.530;2023-07-20T13:51:51;23.98;45.79
66096;SHT31;53861;53.422;14.530;2023-07-20T13:54:22;23.75;46.55
66096;SHT31;53861;53.422;14.530;2023-07-20T13:56:52;23.88;45.68
66096;SHT31;53861;53.422;14.530;2023-07-20T14:05:26;23.96;45.11
66096;SHT31;53861;53.422;14.530;2023-07-20T14:10:52;23.42;46.49
66096;SHT31;53861;53.422;14.530;2023-07-20T14:13:50;23.58;47.06
66096;SHT31;53861;53.422;14.530;2023-07-20T14:16:24;23.93;45.77
66096;SHT31;53861;53.422;14.530;2023-07-20T14:19:05;23.51;47.00
66096;SHT31;53861;53.422;14.530;2023-07-20T14:21:56;23.48;46.66
66096;SHT31;53861;53.422;14.530;2023-07-20T14:25:51;24.00;47.01
66096;SHT31;53861;53.422;14.530;2023-07-20T14:27:20;23.82;46.64
66096;SHT31;53861;53.422;14.530;2023-07-20T14:29:50;24.10;46.33
66096;SHT31;53861;53.422;14.530;2023-07-20T14:32:21;24.85;47.43
66096;SHT31;53861;53.422;14.530;2023-07-20T14:35:01;24.72;45.26
66096;SHT31;53861;53.422;14.530;2023-07-20T14:37:30;24.00;46.95
66096;SHT31;53861;53.422;14.530;2023-07-20T14:39:57;23.73;47.75
66096;SHT31;53861;53.422;14.530;2023-07-20T14:42:24;23.66;48.05
66096;SHT31;53861;53.422;14.530;2023-07-20T14:44:51;23.32;46.90
66096;SHT31;53861;53.422;14.530;2023-07-20T14:47:18;23.25;46.17
66096;SHT31;53861;53.422;14.530;2023-07-20T14:49:45;22.97;46.77
66096;SHT31;53861;53.422;14.530;2023-07-20T14:52:12;22.78;47.01
66096;SHT31;53861;53.422;14.530;2023-07-20T14:54:40;22.73;47.65
66096;SHT31;53861;53.422;14.530;2023-07-20T14:57:07;22.73;48.06
66096;SHT31;53861;53.422;14.530;2023-07-20T14:59:39;22.74;48.56
66096;SHT31;53861;53.422;14.530;2023-07-20T15:02:06;22.90;48.75
66096;SHT31;53861;53.422;14.530;2023-07-20T15:04:45;22.78;48.29
66096;SHT31;53861;53.422;14.530;2023-07-20T15:07:15;22.61;48.38
66096;SHT31;53861;53.422;14.530;2023-07-20T15:09:44;22.54;48.42
66096;SHT31;53861;53.422;14.530;2023-07-20T15:12:11;22.66;48.49
66096;SHT31;53861;53.422;14.530;2023-07-20T15:14:41;22.68;48.75
66096;SHT31;53861;53.422;14.530;2023-07-20T15:17:14;22.97;48.90
66096;SHT31;53861;53.422;14.530;2023-07-20T15:19:41;23.10;48.90
66096;SHT31;53861;53.422;14.530;2023-07-20T15:22:08;23.03;48.32
66096;SHT31;53861;53.422;14.530;2023-07-20T15:24:35;22.83;49.05
66096;SHT31;53861;53.422;14.530;2023-07-20T15:27:04;22.63;49.51
66096;SHT31;53861;53.422;14.530;2023-07-20T15:29:31;22.56;49.77
66096;SHT31;53861;53.422;14.530;2023-07-20T15:31:58;22.40;50.69
66096;SHT31;53861;53.422;14.530;2023-07-20T15:34:25;22.56;50.26
66096;SHT31;53861;53.422;14.530;2023-07-20T15:36:52;22.24;51.32